Bellevue, Michigan
Current Conditions -  °F | °C
As of 4:55 AM on Wednesday 26 Nov 2014 (Local Time) from KFPK Reporting Station
Overcast Overcast  
Wind Chill: 29°   Ceiling: 2000
Heat Index: 29°   Visibility: 10mi
Dew Point: 21°   Wind: 0mph
Humidity: 72%   Direction: NA
Pressure: 30.16"   Gusts: NA
Location:  42.44°N, 85.02°W
Report Text: KFPK 260955Z AUTO 00000KT 10SM OVC020 M01/M06 A3016 RMK AO2 T10151060
Loading
Personal Weather Stations






























Interactive Weather Map New forecast layout! Learn more

10-Day Weather Forecast

Advertisements
Track Severe Weather on mobile